sensor_id;sensor_type;location;lat;lon;timestamp;temperature;humidity
9482;DHT22;4779;48.062;11.672;2024-02-23T00:00:27;7.20;99.90
9482;DHT22;4779;48.062;11.672;2024-02-23T00:02:54;7.30;99.90
9482;DHT22;4779;48.062;11.672;2024-02-23T00:05:24;7.30;99.90
9482;DHT22;4779;48.062;11.672;2024-02-23T00:07:52;7.30;99.90
9482;DHT22;4779;48.062;11.672;2024-02-23T00:10:19;7.20;99.90
9482;DHT22;4779;48.062;11.672;2024-02-23T00:12:46;7.20;99.90
9482;DHT22;4779;48.062;11.672;2024-02-23T00:15:14;7.30;99.90
9482;DHT22;4779;48.062;11.672;2024-02-23T00:17:41;7.20;99.90
9482;DHT22;4779;48.062;11.672;2024-02-23T00:20:09;7.20;99.90
9482;DHT22;4779;48.062;11.672;2024-02-23T00:22:38;7.20;99.90
9482;DHT22;4779;48.062;11.672;2024-02-23T00:25:06;7.10;99.90
9482;DHT22;4779;48.062;11.672;2024-02-23T00:27:33;7.00;99.90
9482;DHT22;4779;48.062;11.672;2024-02-23T00:30:00;7.00;99.90
9482;DHT22;4779;48.062;11.672;2024-02-23T00:32:27;7.10;99.90
9482;DHT22;4779;48.062;11.672;2024-02-23T00:34:57;7.20;99.90
9482;DHT22;4779;48.062;11.672;2024-02-23T00:37:24;7.00;99.90
9482;DHT22;4779;48.062;11.672;2024-02-23T00:39:52;7.00;99.90
9482;DHT22;4779;48.062;11.672;2024-02-23T00:42:19;7.00;99.90
9482;DHT22;4779;48.062;11.672;2024-02-23T00:44:47;7.00;99.90
9482;DHT22;4779;48.062;11.672;2024-02-23T00:47:14;7.00;99.90
9482;DHT22;4779;48.062;11.672;2024-02-23T00:49:41;7.00;99.90
9482;DHT22;4779;48.062;11.672;2024-02-23T00:52:08;7.00;99.90
9482;DHT22;4779;48.062;11.672;2024-02-23T00:54:35;6.90;99.90
9482;DHT22;4779;48.062;11.672;2024-02-23T00:57:04;6.90;99.90
9482;DHT22;4779;48.062;11.672;2024-02-23T00:59:31;6.90;99.90
9482;DHT22;4779;48.062;11.672;2024-02-23T01:01:58;6.90;99.90
9482;DHT22;4779;48.062;11.672;2024-02-23T01:04:25;6.80;99.90
9482;DHT22;4779;48.062;11.672;2024-02-23T01:06:52;6.80;99.90
9482;DHT22;4779;48.062;11.672;2024-02-23T01:09:19;6.90;99.90
9482;DHT22;4779;48.062;11.672;2024-02-23T01:11:47;6.90;99.90
9482;DHT22;4779;48.062;11.672;2024-02-23T01:14:15;6.90;99.90
9482;DHT22;4779;48.062;11.672;2024-02-23T01:16:42;6.80;99.90
9482;DHT22;4779;48.062;11.672;2024-02-23T01:19:09;6.90;99.90
9482;DHT22;4779;48.062;11.672;2024-02-23T01:21:36;6.90;99.90
9482;DHT22;4779;48.062;11.672;2024-02-23T01:24:04;6.90;99.90
9482;DHT22;4779;48.062;11.672;2024-02-23T01:26:31;6.90;99.90
9482;DHT22;4779;48.062;11.672;2024-02-23T01:28:58;6.80;99.90
9482;DHT22;4779;48.062;11.672;2024-02-23T01:31:26;6.80;99.90
9482;DHT22;4779;48.062;11.672;2024-02-23T01:33:53;6.80;99.90
9482;DHT22;4779;48.062;11.672;2024-02-23T01:36:20;6.80;99.90
9482;DHT22;4779;48.062;11.672;2024-02-23T01:38:48;6.90;99.90
9482;DHT22;4779;48.062;11.672;2024-02-23T01:41:15;6.90;99.90
9482;DHT22;4779;48.062;11.672;2024-02-23T01:43:42;6.80;99.90
9482;DHT22;4779;48.062;11.672;2024-02-23T01:46:09;6.80;99.90
9482;DHT22;4779;48.062;11.672;2024-02-23T01:48:37;6.80;99.90
9482;DHT22;4779;48.062;11.672;2024-02-23T01:51:04;6.80;99.90
9482;DHT22;4779;48.062;11.672;2024-02-23T01:53:32;6.80;99.90
9482;DHT22;4779;48.062;11.672;2024-02-23T01:55:59;6.80;99.90
9482;DHT22;4779;48.062;11.672;2024-02-23T01:58:28;6.80;99.90
9482;DHT22;4779;48.062;11.672;2024-02-23T02:00:56;6.80;99.90
9482;DHT22;4779;48.062;11.672;2024-02-23T02:03:23;6.80;99.90
9482;DHT22;4779;48.062;11.672;2024-02-23T02:05:53;6.80;99.90
9482;DHT22;4779;48.062;11.672;2024-02-23T02:08:20;6.80;99.90
9482;DHT22;4779;48.062;11.672;2024-02-23T02:10:47;6.70;99.90
9482;DHT22;4779;48.062;11.672;2024-02-23T02:13:15;6.70;99.90
9482;DHT22;4779;48.062;11.672;2024-02-23T02:15:42;6.60;99.90
9482;DHT22;4779;48.062;11.672;2024-02-23T02:18:09;6.60;99.90
9482;DHT22;4779;48.062;11.672;2024-02-23T02:20:37;6.50;99.90
9482;DHT22;4779;48.062;11.672;2024-02-23T02:23:08;6.50;99.90
9482;DHT22;4779;48.062;11.672;2024-02-23T02:25:36;6.60;99.90
9482;DHT22;4779;48.062;11.672;2024-02-23T02:28:06;6.50;99.90
9482;DHT22;4779;48.062;11.672;2024-02-23T02:30:33;6.50;99.90
9482;DHT22;4779;48.062;11.672;2024-02-23T02:33:00;6.60;99.90
9482;DHT22;4779;48.062;11.672;2024-02-23T02:35:27;6.60;99.90
9482;DHT22;4779;48.062;11.672;2024-02-23T02:37:54;6.60;99.90
9482;DHT22;4779;48.062;11.672;2024-02-23T02:40:23;6.50;99.90
9482;DHT22;4779;48.062;11.672;2024-02-23T02:42:50;6.60;99.90
9482;DHT22;4779;48.062;11.672;2024-02-23T02:45:17;6.60;99.90
9482;DHT22;4779;48.062;11.672;2024-02-23T02:47:44;6.60;99.90
9482;DHT22;4779;48.062;11.672;2024-02-23T02:50:11;6.60;99.90
9482;DHT22;4779;48.062;11.672;2024-02-23T02:52:38;6.60;99.90
9482;DHT22;4779;48.062;11.672;2024-02-23T02:55:06;6.60;99.90
9482;DHT22;4779;48.062;11.672;2024-02-23T02:57:34;6.50;99.90
9482;DHT22;4779;48.062;11.672;2024-02-23T03:00:02;6.50;99.90
9482;DHT22;4779;48.062;11.672;2024-02-23T03:02:30;6.60;99.90
9482;DHT22;4779;48.062;11.672;2024-02-23T03:04:57;6.60;99.90
9482;DHT22;4779;48.062;11.672;2024-02-23T03:07:24;6.60;99.90
9482;DHT22;4779;48.062;11.672;2024-02-23T03:09:52;6.50;99.90
9482;DHT22;4779;48.062;11.672;2024-02-23T03:12:19;6.50;99.90
9482;DHT22;4779;48.062;11.672;2024-02-23T03:14:48;6.50;99.90
9482;DHT22;4779;48.062;11.672;2024-02-23T03:17:15;6.50;99.90
9482;DHT22;4779;48.062;11.672;2024-02-23T03:19:42;6.50;99.90
9482;DHT22;4779;48.062;11.672;2024-02-23T03:22:09;6.50;99.90
9482;DHT22;4779;48.062;11.672;2024-02-23T03:24:36;6.50;99.90
9482;DHT22;4779;48.062;11.672;2024-02-23T03:27:04;6.50;99.90
9482;DHT22;4779;48.062;11.672;2024-02-23T03:29:31;6.50;99.90
9482;DHT22;4779;48.062;11.672;2024-02-23T03:32:00;6.50;99.90
9482;DHT22;4779;48.062;11.672;2024-02-23T03:34:28;6.40;99.90
9482;DHT22;4779;48.062;11.672;2024-02-23T03:36:55;6.40;99.90
9482;DHT22;4779;48.062;11.672;2024-02-23T03:39:22;6.40;99.90
9482;DHT22;4779;48.062;11.672;2024-02-23T03:41:49;6.40;99.90
9482;DHT22;4779;48.062;11.672;2024-02-23T03:44:16;6.30;99.90
9482;DHT22;4779;48.062;11.672;2024-02-23T03:46:43;6.30;99.90
9482;DHT22;4779;48.062;11.672;2024-02-23T03:49:11;6.30;99.90
9482;DHT22;4779;48.062;11.672;2024-02-23T03:51:38;6.30;99.90
9482;DHT22;4779;48.062;11.672;2024-02-23T03:54:06;6.20;99.90
9482;DHT22;4779;48.062;11.672;2024-02-23T03:56:38;6.20;99.90
9482;DHT22;4779;48.062;11.672;2024-02-23T03:59:06;6.20;99.90
9482;DHT22;4779;48.062;11.672;2024-02-23T04:01:35;6.20;99.90
9482;DHT22;4779;48.062;11.672;2024-02-23T04:04:02;6.20;99.90
9482;DHT22;4779;48.062;11.672;2024-02-23T04:06:31;6.20;99.90
9482;DHT22;4779;48.062;11.672;2024-02-23T04:08:58;6.20;99.90
9482;DHT22;4779;48.062;11.672;2024-02-23T04:11:25;6.20;99.90
9482;DHT22;4779;48.062;11.672;2024-02-23T04:13:52;6.20;99.90
9482;DHT22;4779;48.062;11.672;2024-02-23T04:16:23;6.10;99.90
9482;DHT22;4779;48.062;11.672;2024-02-23T04:18:53;6.20;99.90
9482;DHT22;4779;48.062;11.672;2024-02-23T04:21:21;6.20;99.90
9482;DHT22;4779;48.062;11.672;2024-02-23T04:23:50;6.10;99.90
9482;DHT22;4779;48.062;11.672;2024-02-23T04:26:17;6.20;99.90
9482;DHT22;4779;48.062;11.672;2024-02-23T04:28:44;6.00;99.90
9482;DHT22;4779;48.062;11.672;2024-02-23T04:31:11;5.90;99.90
9482;DHT22;4779;48.062;11.672;2024-02-23T04:33:38;5.80;99.90
9482;DHT22;4779;48.062;11.672;2024-02-23T04:36:05;5.80;99.90
9482;DHT22;4779;48.062;11.672;2024-02-23T04:38:33;5.80;99.90
9482;DHT22;4779;48.062;11.672;2024-02-23T04:41:04;5.80;99.90
9482;DHT22;4779;48.062;11.672;2024-02-23T04:43:31;5.80;99.90
9482;DHT22;4779;48.062;11.672;2024-02-23T04:45:58;5.80;99.90
9482;DHT22;4779;48.062;11.672;2024-02-23T04:48:25;5.70;99.90
9482;DHT22;4779;48.062;11.672;2024-02-23T04:50:52;5.70;99.90
9482;DHT22;4779;48.062;11.672;2024-02-23T04:53:19;5.80;99.90
9482;DHT22;4779;48.062;11.672;2024-02-23T04:55:46;5.70;99.90
9482;DHT22;4779;48.062;11.672;2024-02-23T04:58:15;5.70;99.90
9482;DHT22;4779;48.062;11.672;2024-02-23T05:00:42;5.80;99.90
9482;DHT22;4779;48.062;11.672;2024-02-23T05:03:09;5.70;99.90
9482;DHT22;4779;48.062;11.672;2024-02-23T05:05:36;5.70;99.90
9482;DHT22;4779;48.062;11.672;2024-02-23T05:08:04;5.60;99.90
9482;DHT22;4779;48.062;11.672;2024-02-23T05:10:31;5.70;99.90
9482;DHT22;4779;48.062;11.672;2024-02-23T05:12:58;5.70;99.90
9482;DHT22;4779;48.062;11.672;2024-02-23T05:15:26;5.80;99.90
9482;DHT22;4779;48.062;11.672;2024-02-23T05:17:53;5.90;99.90
9482;DHT22;4779;48.062;11.672;2024-02-23T05:20:20;5.90;99.90
9482;DHT22;4779;48.062;11.672;2024-02-23T05:22:47;6.00;99.90
9482;DHT22;4779;48.062;11.672;2024-02-23T05:25:14;6.00;99.90
9482;DHT22;4779;48.062;11.672;2024-02-23T05:27:41;5.90;99.90
9482;DHT22;4779;48.062;11.672;2024-02-23T05:30:09;6.00;99.90
9482;DHT22;4779;48.062;11.672;2024-02-23T05:32:38;6.00;99.90
9482;DHT22;4779;48.062;11.672;2024-02-23T05:35:06;5.90;99.90
9482;DHT22;4779;48.062;11.672;2024-02-23T05:37:34;5.90;99.90
9482;DHT22;4779;48.062;11.672;2024-02-23T05:40:01;5.90;99.90
9482;DHT22;4779;48.062;11.672;2024-02-23T05:42:32;5.90;99.90
9482;DHT22;4779;48.062;11.672;2024-02-23T05:44:59;6.00;99.90
9482;DHT22;4779;48.062;11.672;2024-02-23T05:47:26;5.90;99.90
9482;DHT22;4779;48.062;11.672;2024-02-23T05:49:54;5.90;99.90
9482;DHT22;4779;48.062;11.672;2024-02-23T05:52:21;5.90;99.90
9482;DHT22;4779;48.062;11.672;2024-02-23T05:54:48;5.90;99.90
9482;DHT22;4779;48.062;11.672;2024-02-23T05:57:17;5.90;99.90
9482;DHT22;4779;48.062;11.672;2024-02-23T05:59:44;5.80;99.90
9482;DHT22;4779;48.062;11.672;2024-02-23T06:02:12;5.80;99.90
9482;DHT22;4779;48.062;11.672;2024-02-23T06:04:40;5.70;99.90
9482;DHT22;4779;48.062;11.672;2024-02-23T06:07:11;5.70;99.90
9482;DHT22;4779;48.062;11.672;2024-02-23T06:09:38;5.70;99.90
9482;DHT22;4779;48.062;11.672;2024-02-23T06:12:06;5.70;99.90
9482;DHT22;4779;48.062;11.672;2024-02-23T06:14:34;5.70;99.90
9482;DHT22;4779;48.062;11.672;2024-02-23T06:17:01;5.80;99.90
9482;DHT22;4779;48.062;11.672;2024-02-23T06:19:28;5.80;99.90
9482;DHT22;4779;48.062;11.672;2024-02-23T06:21:55;5.70;99.90
9482;DHT22;4779;48.062;11.672;2024-02-23T06:24:24;5.80;99.90
9482;DHT22;4779;48.062;11.672;2024-02-23T06:26:51;5.70;99.90
9482;DHT22;4779;48.062;11.672;2024-02-23T06:29:18;5.70;99.90
9482;DHT22;4779;48.062;11.672;2024-02-23T06:31:45;5.70;99.90
9482;DHT22;4779;48.062;11.672;2024-02-23T06:34:14;5.70;99.90
9482;DHT22;4779;48.062;11.672;2024-02-23T06:36:41;5.60;99.90
9482;DHT22;4779;48.062;11.672;2024-02-23T06:39:09;5.60;99.90
9482;DHT22;4779;48.062;11.672;2024-02-23T06:41:38;5.70;99.90
9482;DHT22;4779;48.062;11.672;2024-02-23T06:44:05;5.60;99.90
9482;DHT22;4779;48.062;11.672;2024-02-23T06:46:32;5.60;99.90
9482;DHT22;4779;48.062;11.672;2024-02-23T06:48:59;5.60;99.90
9482;DHT22;4779;48.062;11.672;2024-02-23T06:51:26;5.60;99.90
9482;DHT22;4779;48.062;11.672;2024-02-23T06:53:57;5.70;99.90
9482;DHT22;4779;48.062;11.672;2024-02-23T06:56:30;5.80;99.90
9482;DHT22;4779;48.062;11.672;2024-02-23T06:58:58;5.80;99.90
9482;DHT22;4779;48.062;11.672;2024-02-23T07:01:25;5.70;99.90
9482;DHT22;4779;48.062;11.672;2024-02-23T07:03:53;5.70;99.90
9482;DHT22;4779;48.062;11.672;2024-02-23T07:06:20;5.60;99.90
9482;DHT22;4779;48.062;11.672;2024-02-23T07:08:47;5.60;99.90
9482;DHT22;4779;48.062;11.672;2024-02-23T07:11:14;5.50;99.90
9482;DHT22;4779;48.062;11.672;2024-02-23T07:13:43;5.50;99.90
9482;DHT22;4779;48.062;11.672;2024-02-23T07:16:11;5.60;99.90
9482;DHT22;4779;48.062;11.672;2024-02-23T07:18:40;5.60;99.90
9482;DHT22;4779;48.062;11.672;2024-02-23T07:21:07;5.60;99.90
9482;DHT22;4779;48.062;11.672;2024-02-23T07:23:34;5.60;99.90
9482;DHT22;4779;48.062;11.672;2024-02-23T07:26:01;5.60;99.90
9482;DHT22;4779;48.062;11.672;2024-02-23T07:28:28;5.60;99.90
9482;DHT22;4779;48.062;11.672;2024-02-23T07:30:55;5.60;99.90
9482;DHT22;4779;48.062;11.672;2024-02-23T07:33:24;5.70;99.90
9482;DHT22;4779;48.062;11.672;2024-02-23T07:35:51;5.70;99.90
9482;DHT22;4779;48.062;11.672;2024-02-23T07:38:18;5.70;99.90
9482;DHT22;4779;48.062;11.672;2024-02-23T07:40:45;5.80;99.90
9482;DHT22;4779;48.062;11.672;2024-02-23T07:43:12;5.70;99.90
9482;DHT22;4779;48.062;11.672;2024-02-23T07:45:39;5.70;99.90
9482;DHT22;4779;48.062;11.672;2024-02-23T07:48:07;5.70;99.90
9482;DHT22;4779;48.062;11.672;2024-02-23T07:50:35;5.70;99.90
9482;DHT22;4779;48.062;11.672;2024-02-23T07:53:02;5.70;99.90
9482;DHT22;4779;48.062;11.672;2024-02-23T07:55:30;5.60;99.90
9482;DHT22;4779;48.062;11.672;2024-02-23T07:57:57;5.60;99.90
9482;DHT22;4779;48.062;11.672;2024-02-23T08:00:27;5.60;99.90
9482;DHT22;4779;48.062;11.672;2024-02-23T08:02:54;5.60;99.90
9482;DHT22;4779;48.062;11.672;2024-02-23T08:05:22;5.70;99.90
9482;DHT22;4779;48.062;11.672;2024-02-23T08:07:51;5.70;99.90
9482;DHT22;4779;48.062;11.672;2024-02-23T08:10:18;5.70;99.90
9482;DHT22;4779;48.062;11.672;2024-02-23T08:12:51;5.70;99.90
9482;DHT22;4779;48.062;11.672;2024-02-23T08:15:18;5.80;99.90
9482;DHT22;4779;48.062;11.672;2024-02-23T08:17:45;5.90;99.90
9482;DHT22;4779;48.062;11.672;2024-02-23T08:20:12;5.90;99.90
9482;DHT22;4779;48.062;11.672;2024-02-23T08:22:39;6.00;99.90
9482;DHT22;4779;48.062;11.672;2024-02-23T08:25:08;6.00;99.90
9482;DHT22;4779;48.062;11.672;2024-02-23T08:27:35;6.10;99.90
9482;DHT22;4779;48.062;11.672;2024-02-23T08:30:03;6.30;99.90
9482;DHT22;4779;48.062;11.672;2024-02-23T08:32:30;6.30;99.90
9482;DHT22;4779;48.062;11.672;2024-02-23T08:34:57;6.40;99.90
9482;DHT22;4779;48.062;11.672;2024-02-23T08:37:26;6.40;99.90
9482;DHT22;4779;48.062;11.672;2024-02-23T08:39:53;6.30;99.90
9482;DHT22;4779;48.062;11.672;2024-02-23T08:42:21;6.30;99.90
9482;DHT22;4779;48.062;11.672;2024-02-23T08:44:48;6.20;99.90
9482;DHT22;4779;48.062;11.672;2024-02-23T08:47:15;6.20;99.90
9482;DHT22;4779;48.062;11.672;2024-02-23T08:49:42;6.20;99.90
9482;DHT22;4779;48.062;11.672;2024-02-23T08:52:09;6.10;99.90
9482;DHT22;4779;48.062;11.672;2024-02-23T08:54:36;6.00;99.90
9482;DHT22;4779;48.062;11.672;2024-02-23T08:57:05;6.00;99.90
9482;DHT22;4779;48.062;11.672;2024-02-23T08:59:33;6.00;99.90
9482;DHT22;4779;48.062;11.672;2024-02-23T09:02:00;6.00;99.90
9482;DHT22;4779;48.062;11.672;2024-02-23T09:04:28;6.00;99.90
9482;DHT22;4779;48.062;11.672;2024-02-23T09:06:55;6.00;99.90
9482;DHT22;4779;48.062;11.672;2024-02-23T09:09:22;6.10;99.90
9482;DHT22;4779;48.062;11.672;2024-02-23T09:11:50;6.00;99.90
9482;DHT22;4779;48.062;11.672;2024-02-23T09:14:17;6.00;99.90
9482;DHT22;4779;48.062;11.672;2024-02-23T09:16:46;5.90;99.90
9482;DHT22;4779;48.062;11.672;2024-02-23T09:19:16;5.80;99.90
9482;DHT22;4779;48.062;11.672;2024-02-23T09:21:44;5.80;99.90
9482;DHT22;4779;48.062;11.672;2024-02-23T09:24:11;5.90;99.90
9482;DHT22;4779;48.062;11.672;2024-02-23T09:26:38;5.90;99.90
9482;DHT22;4779;48.062;11.672;2024-02-23T09:29:05;5.80;99.90
9482;DHT22;4779;48.062;11.672;2024-02-23T09:31:32;5.80;99.90
9482;DHT22;4779;48.062;11.672;2024-02-23T09:34:01;5.80;99.90
9482;DHT22;4779;48.062;11.672;2024-02-23T09:36:28;5.70;99.90
9482;DHT22;4779;48.062;11.672;2024-02-23T09:38:56;5.60;99.90
9482;DHT22;4779;48.062;11.672;2024-02-23T09:41:23;5.50;99.90
9482;DHT22;4779;48.062;11.672;2024-02-23T09:43:51;5.50;99.90
9482;DHT22;4779;48.062;11.672;2024-02-23T09:46:19;5.50;99.90
9482;DHT22;4779;48.062;11.672;2024-02-23T09:48:48;5.40;99.90
9482;DHT22;4779;48.062;11.672;2024-02-23T09:51:17;5.30;99.90
9482;DHT22;4779;48.062;11.672;2024-02-23T09:53:49;5.10;99.90
9482;DHT22;4779;48.062;11.672;2024-02-23T09:56:16;5.10;99.90
9482;DHT22;4779;48.062;11.672;2024-02-23T09:58:47;5.10;99.90
9482;DHT22;4779;48.062;11.672;2024-02-23T10:01:18;5.10;99.90
9482;DHT22;4779;48.062;11.672;2024-02-23T10:03:48;5.20;99.90
9482;DHT22;4779;48.062;11.672;2024-02-23T10:06:16;5.20;99.90
9482;DHT22;4779;48.062;11.672;2024-02-23T10:08:43;5.20;99.90
9482;DHT22;4779;48.062;11.672;2024-02-23T10:11:10;5.20;99.90
9482;DHT22;4779;48.062;11.672;2024-02-23T10:13:41;5.20;99.90
9482;DHT22;4779;48.062;11.672;2024-02-23T10:16:09;5.20;99.90
9482;DHT22;4779;48.062;11.672;2024-02-23T10:18:38;5.20;99.90
9482;DHT22;4779;48.062;11.672;2024-02-23T10:21:05;5.30;99.90
9482;DHT22;4779;48.062;11.672;2024-02-23T10:23:33;5.20;99.90
9482;DHT22;4779;48.062;11.672;2024-02-23T10:26:00;5.20;99.90
9482;DHT22;4779;48.062;11.672;2024-02-23T10:28:27;5.10;99.90
9482;DHT22;4779;48.062;11.672;2024-02-23T10:30:57;5.10;99.90
9482;DHT22;4779;48.062;11.672;2024-02-23T10:33:26;5.00;99.90
9482;DHT22;4779;48.062;11.672;2024-02-23T10:35:56;5.00;99.90
9482;DHT22;4779;48.062;11.672;2024-02-23T10:38:24;5.00;99.90
9482;DHT22;4779;48.062;11.672;2024-02-23T10:40:55;5.00;99.90
9482;DHT22;4779;48.062;11.672;2024-02-23T10:43:29;5.00;99.90
9482;DHT22;4779;48.062;11.672;2024-02-23T10:45:59;5.00;99.90
9482;DHT22;4779;48.062;11.672;2024-02-23T10:48:31;5.00;99.90
9482;DHT22;4779;48.062;11.672;2024-02-23T10:50:58;5.00;99.90
9482;DHT22;4779;48.062;11.672;2024-02-23T10:53:28;5.00;99.90
9482;DHT22;4779;48.062;11.672;2024-02-23T10:55:57;5.10;99.90
9482;DHT22;4779;48.062;11.672;2024-02-23T10:58:24;5.10;99.90
9482;DHT22;4779;48.062;11.672;2024-02-23T11:00:52;5.10;99.90
9482;DHT22;4779;48.062;11.672;2024-02-23T11:03:23;5.10;99.90
9482;DHT22;4779;48.062;11.672;2024-02-23T11:05:50;5.10;99.90
9482;DHT22;4779;48.062;11.672;2024-02-23T11:08:20;5.10;99.90
9482;DHT22;4779;48.062;11.672;2024-02-23T11:10:50;5.00;99.90
9482;DHT22;4779;48.062;11.672;2024-02-23T11:13:29;5.10;99.90
9482;DHT22;4779;48.062;11.672;2024-02-23T11:16:01;5.10;99.90
9482;DHT22;4779;48.062;11.672;2024-02-23T11:18:29;5.20;99.90
9482;DHT22;4779;48.062;11.672;2024-02-23T11:20:59;5.20;99.90
9482;DHT22;4779;48.062;11.672;2024-02-23T11:23:27;5.20;99.90
9482;DHT22;4779;48.062;11.672;2024-02-23T11:26:07;5.20;99.90
9482;DHT22;4779;48.062;11.672;2024-02-23T11:28:43;5.20;99.90
9482;DHT22;4779;48.062;11.672;2024-02-23T11:31:19;5.20;99.90
9482;DHT22;4779;48.062;11.672;2024-02-23T11:33:50;5.20;99.90
9482;DHT22;4779;48.062;11.672;2024-02-23T11:36:28;5.30;99.90
9482;DHT22;4779;48.062;11.672;2024-02-23T11:38:57;5.30;99.90
9482;DHT22;4779;48.062;11.672;2024-02-23T11:41:25;5.30;99.90
9482;DHT22;4779;48.062;11.672;2024-02-23T11:43:54;5.30;99.90
9482;DHT22;4779;48.062;11.672;2024-02-23T11:46:22;5.30;99.90
9482;DHT22;4779;48.062;11.672;2024-02-23T11:48:49;5.30;99.90
9482;DHT22;4779;48.062;11.672;2024-02-23T11:51:20;5.30;99.90
9482;DHT22;4779;48.062;11.672;2024-02-23T11:53:47;5.30;99.90
9482;DHT22;4779;48.062;11.672;2024-02-23T11:56:15;5.30;99.90
9482;DHT22;4779;48.062;11.672;2024-02-23T11:58:43;5.20;99.90
9482;DHT22;4779;48.062;11.672;2024-02-23T12:01:11;5.20;99.90
9482;DHT22;4779;48.062;11.672;2024-02-23T12:03:39;5.30;99.90
9482;DHT22;4779;48.062;11.672;2024-02-23T12:06:07;5.20;99.90
9482;DHT22;4779;48.062;11.672;2024-02-23T12:08:35;5.10;99.90
9482;DHT22;4779;48.062;11.672;2024-02-23T12:11:05;5.20;99.90
9482;DHT22;4779;48.062;11.672;2024-02-23T12:13:34;5.20;99.90
9482;DHT22;4779;48.062;11.672;2024-02-23T12:16:01;5.20;99.90
9482;DHT22;4779;48.062;11.672;2024-02-23T12:18:33;5.20;99.90
9482;DHT22;4779;48.062;11.672;2024-02-23T12:21:00;5.20;99.90
9482;DHT22;4779;48.062;11.672;2024-02-23T12:23:38;5.10;99.90
9482;DHT22;4779;48.062;11.672;2024-02-23T12:26:06;5.20;99.90
9482;DHT22;4779;48.062;11.672;2024-02-23T12:28:33;5.20;99.90
9482;DHT22;4779;48.062;11.672;2024-02-23T12:31:00;5.30;99.90
9482;DHT22;4779;48.062;11.672;2024-02-23T12:33:29;5.20;99.90
9482;DHT22;4779;48.062;11.672;2024-02-23T12:35:58;5.30;99.90
9482;DHT22;4779;48.062;11.672;2024-02-23T12:38:25;5.30;99.90
9482;DHT22;4779;48.062;11.672;2024-02-23T12:40:53;5.20;99.90
9482;DHT22;4779;48.062;11.672;2024-02-23T12:43:21;5.20;99.90
9482;DHT22;4779;48.062;11.672;2024-02-23T12:45:50;5.30;99.90
9482;DHT22;4779;48.062;11.672;2024-02-23T12:48:17;5.20;99.90
9482;DHT22;4779;48.062;11.672;2024-02-23T12:50:46;5.10;99.90
9482;DHT22;4779;48.062;11.672;2024-02-23T12:53:30;5.00;99.90
9482;DHT22;4779;48.062;11.672;2024-02-23T12:55:58;4.90;99.90
9482;DHT22;4779;48.062;11.672;2024-02-23T12:58:25;4.90;99.90
9482;DHT22;4779;48.062;11.672;2024-02-23T13:00:53;4.90;99.90
9482;DHT22;4779;48.062;11.672;2024-02-23T13:03:20;5.00;99.90
9482;DHT22;4779;48.062;11.672;2024-02-23T13:05:48;5.00;99.90
9482;DHT22;4779;48.062;11.672;2024-02-23T13:08:16;5.00;99.90
9482;DHT22;4779;48.062;11.672;2024-02-23T13:10:43;5.00;99.90
9482;DHT22;4779;48.062;11.672;2024-02-23T13:13:10;5.00;99.90
9482;DHT22;4779;48.062;11.672;2024-02-23T13:15:38;5.10;99.90
9482;DHT22;4779;48.062;11.672;2024-02-23T13:18:05;5.10;99.90
9482;DHT22;4779;48.062;11.672;2024-02-23T13:20:32;5.00;99.90
9482;DHT22;4779;48.062;11.672;2024-02-23T13:23:01;5.00;99.90
9482;DHT22;4779;48.062;11.672;2024-02-23T13:25:28;4.90;99.90
9482;DHT22;4779;48.062;11.672;2024-02-23T13:27:55;4.80;99.90
9482;DHT22;4779;48.062;11.672;2024-02-23T13:30:23;4.80;99.90
9482;DHT22;4779;48.062;11.672;2024-02-23T13:32:50;4.80;99.90
9482;DHT22;4779;48.062;11.672;2024-02-23T13:35:18;4.90;99.90
9482;DHT22;4779;48.062;11.672;2024-02-23T13:37:45;4.90;99.90
9482;DHT22;4779;48.062;11.672;2024-02-23T13:40:14;4.90;99.90
9482;DHT22;4779;48.062;11.672;2024-02-23T13:42:42;4.90;99.90
9482;DHT22;4779;48.062;11.672;2024-02-23T13:45:12;4.90;99.90
9482;DHT22;4779;48.062;11.672;2024-02-23T13:47:40;4.90;99.90
9482;DHT22;4779;48.062;11.672;2024-02-23T13:50:09;4.90;99.90
9482;DHT22;4779;48.062;11.672;2024-02-23T13:52:36;4.90;99.90
9482;DHT22;4779;48.062;11.672;2024-02-23T13:55:04;5.00;99.90
9482;DHT22;4779;48.062;11.672;2024-02-23T13:57:33;5.00;99.90
9482;DHT22;4779;48.062;11.672;2024-02-23T14:00:00;4.90;99.90
9482;DHT22;4779;48.062;11.672;2024-02-23T14:02:27;4.80;99.90
9482;DHT22;4779;48.062;11.672;2024-02-23T14:05:00;4.80;99.90
9482;DHT22;4779;48.062;11.672;2024-02-23T14:07:28;4.90;99.90
9482;DHT22;4779;48.062;11.672;2024-02-23T14:09:56;4.90;99.90
9482;DHT22;4779;48.062;11.672;2024-02-23T14:12:23;4.90;99.90
9482;DHT22;4779;48.062;11.672;2024-02-23T14:14:51;4.90;99.90
9482;DHT22;4779;48.062;11.672;2024-02-23T14:17:18;4.90;99.90
9482;DHT22;4779;48.062;11.672;2024-02-23T14:19:45;4.80;99.90
9482;DHT22;4779;48.062;11.672;2024-02-23T14:22:12;4.80;99.90
9482;DHT22;4779;48.062;11.672;2024-02-23T14:24:40;4.80;99.90
9482;DHT22;4779;48.062;11.672;2024-02-23T14:27:07;4.70;99.90
9482;DHT22;4779;48.062;11.672;2024-02-23T14:29:34;4.70;99.90
9482;DHT22;4779;48.062;11.672;2024-02-23T14:32:03;4.70;99.90
9482;DHT22;4779;48.062;11.672;2024-02-23T14:34:31;4.70;99.90
9482;DHT22;4779;48.062;11.672;2024-02-23T14:36:59;4.60;99.90
9482;DHT22;4779;48.062;11.672;2024-02-23T14:41:53;4.50;99.90
9482;DHT22;4779;48.062;11.672;2024-02-23T14:44:20;4.50;99.90
9482;DHT22;4779;48.062;11.672;2024-02-23T14:46:48;4.50;99.90
9482;DHT22;4779;48.062;11.672;2024-02-23T14:49:16;4.70;99.90
9482;DHT22;4779;48.062;11.672;2024-02-23T14:51:44;4.60;99.90
9482;DHT22;4779;48.062;11.672;2024-02-23T14:54:13;4.70;99.90
9482;DHT22;4779;48.062;11.672;2024-02-23T14:56:40;4.60;99.90
9482;DHT22;4779;48.062;11.672;2024-02-23T14:59:07;4.60;99.90
9482;DHT22;4779;48.062;11.672;2024-02-23T15:01:36;4.40;99.90
9482;DHT22;4779;48.062;11.672;2024-02-23T15:04:04;4.40;99.90
9482;DHT22;4779;48.062;11.672;2024-02-23T15:06:32;4.40;99.90
9482;DHT22;4779;48.062;11.672;2024-02-23T15:08:59;4.40;99.90
9482;DHT22;4779;48.062;11.672;2024-02-23T15:11:27;4.40;99.90
9482;DHT22;4779;48.062;11.672;2024-02-23T15:13:54;4.40;99.90
9482;DHT22;4779;48.062;11.672;2024-02-23T15:16:24;4.40;99.90
9482;DHT22;4779;48.062;11.672;2024-02-23T15:18:51;4.40;99.90
9482;DHT22;4779;48.062;11.672;2024-02-23T15:21:18;4.40;99.90
9482;DHT22;4779;48.062;11.672;2024-02-23T15:23:47;4.40;99.90
9482;DHT22;4779;48.062;11.672;2024-02-23T15:26:14;4.40;99.90
9482;DHT22;4779;48.062;11.672;2024-02-23T15:28:41;4.30;99.90
9482;DHT22;4779;48.062;11.672;2024-02-23T15:31:08;4.30;99.90
9482;DHT22;4779;48.062;11.672;2024-02-23T15:33:35;4.30;99.90
9482;DHT22;4779;48.062;11.672;2024-02-23T15:36:05;4.20;99.90
9482;DHT22;4779;48.062;11.672;2024-02-23T15:38:34;4.20;99.90
9482;DHT22;4779;48.062;11.672;2024-02-23T15:41:02;4.20;99.90
9482;DHT22;4779;48.062;11.672;2024-02-23T15:43:30;4.10;99.90
9482;DHT22;4779;48.062;11.672;2024-02-23T15:45:57;4.00;99.90
9482;DHT22;4779;48.062;11.672;2024-02-23T15:48:24;4.00;99.90
9482;DHT22;4779;48.062;11.672;2024-02-23T15:50:51;4.00;99.90
9482;DHT22;4779;48.062;11.672;2024-02-23T15:53:19;4.00;99.90
9482;DHT22;4779;48.062;11.672;2024-02-23T15:55:52;4.00;99.90
9482;DHT22;4779;48.062;11.672;2024-02-23T15:58:21;4.00;99.90
9482;DHT22;4779;48.062;11.672;2024-02-23T16:00:48;4.00;99.90
9482;DHT22;4779;48.062;11.672;2024-02-23T16:03:18;3.90;99.90
9482;DHT22;4779;48.062;11.672;2024-02-23T16:05:45;3.90;99.90
9482;DHT22;4779;48.062;11.672;2024-02-23T16:08:12;3.90;99.90